sensor_id;sensor_type;location;lat;lon;timestamp;temperature;humidity
51811;DHT22;52468;40.116;18.296;2023-02-26T00:01:41;15.50;82.50
51811;DHT22;52468;40.116;18.296;2023-02-26T00:04:10;15.50;82.70
51811;DHT22;52468;40.116;18.296;2023-02-26T00:06:39;15.60;82.80
51811;DHT22;52468;40.116;18.296;2023-02-26T00:09:19;15.60;82.70
51811;DHT22;52468;40.116;18.296;2023-02-26T00:11:47;15.60;82.40
51811;DHT22;52468;40.116;18.296;2023-02-26T00:14:16;15.50;82.10
51811;DHT22;52468;40.116;18.296;2023-02-26T00:17:04;15.50;81.80
51811;DHT22;52468;40.116;18.296;2023-02-26T00:19:34;15.40;81.90
51811;DHT22;52468;40.116;18.296;2023-02-26T00:22:03;15.40;82.00
51811;DHT22;52468;40.116;18.296;2023-02-26T00:24:31;15.40;82.30
51811;DHT22;52468;40.116;18.296;2023-02-26T00:26:58;15.30;82.40
51811;DHT22;52468;40.116;18.296;2023-02-26T00:29:27;15.30;82.40
51811;DHT22;52468;40.116;18.296;2023-02-26T00:31:55;15.30;82.40
51811;DHT22;52468;40.116;18.296;2023-02-26T00:34:23;15.20;82.50
51811;DHT22;52468;40.116;18.296;2023-02-26T00:37:18;15.10;82.40
51811;DHT22;52468;40.116;18.296;2023-02-26T00:40:04;15.10;82.40
51811;DHT22;52468;40.116;18.296;2023-02-26T00:42:35;15.10;82.40
51811;DHT22;52468;40.116;18.296;2023-02-26T00:45:04;15.10;82.40
51811;DHT22;52468;40.116;18.296;2023-02-26T00:50:24;15.10;82.60
51811;DHT22;52468;40.116;18.296;2023-02-26T00:53:12;15.20;82.80
51811;DHT22;52468;40.116;18.296;2023-02-26T00:55:43;15.20;82.90
51811;DHT22;52468;40.116;18.296;2023-02-26T00:58:11;15.30;82.80
51811;DHT22;52468;40.116;18.296;2023-02-26T01:00:39;15.30;82.80
51811;DHT22;52468;40.116;18.296;2023-02-26T01:03:07;15.30;82.80
51811;DHT22;52468;40.116;18.296;2023-02-26T01:05:35;15.30;82.70
51811;DHT22;52468;40.116;18.296;2023-02-26T01:08:31;15.30;82.60
51811;DHT22;52468;40.116;18.296;2023-02-26T01:11:00;15.30;82.70
51811;DHT22;52468;40.116;18.296;2023-02-26T01:13:28;15.30;82.70
51811;DHT22;52468;40.116;18.296;2023-02-26T01:16:02;15.30;82.70
51811;DHT22;52468;40.116;18.296;2023-02-26T01:18:45;15.30;82.60
51811;DHT22;52468;40.116;18.296;2023-02-26T01:21:19;15.30;82.50
51811;DHT22;52468;40.116;18.296;2023-02-26T01:23:51;15.50;82.40
51811;DHT22;52468;40.116;18.296;2023-02-26T01:26:21;15.40;82.30
51811;DHT22;52468;40.116;18.296;2023-02-26T01:28:51;15.40;82.30
51811;DHT22;52468;40.116;18.296;2023-02-26T01:31:39;15.40;82.00
51811;DHT22;52468;40.116;18.296;2023-02-26T01:34:20;15.40;81.90
51811;DHT22;52468;40.116;18.296;2023-02-26T01:37:23;15.40;81.80
51811;DHT22;52468;40.116;18.296;2023-02-26T01:42:43;15.30;82.00
51811;DHT22;52468;40.116;18.296;2023-02-26T01:45:16;15.20;81.90
51811;DHT22;52468;40.116;18.296;2023-02-26T01:48:15;15.20;81.90
51811;DHT22;52468;40.116;18.296;2023-02-26T01:50:45;15.20;82.00
51811;DHT22;52468;40.116;18.296;2023-02-26T01:53:22;15.10;81.90
51811;DHT22;52468;40.116;18.296;2023-02-26T01:56:16;15.20;81.80
51811;DHT22;52468;40.116;18.296;2023-02-26T01:58:46;15.20;82.00
51811;DHT22;52468;40.116;18.296;2023-02-26T02:01:14;15.20;81.80
51811;DHT22;52468;40.116;18.296;2023-02-26T02:03:42;15.10;81.80
51811;DHT22;52468;40.116;18.296;2023-02-26T02:06:18;15.10;82.00
51811;DHT22;52468;40.116;18.296;2023-02-26T02:08:46;15.10;82.10
51811;DHT22;52468;40.116;18.296;2023-02-26T02:11:14;15.10;82.10
51811;DHT22;52468;40.116;18.296;2023-02-26T02:25:19;15.10;81.90
51811;DHT22;52468;40.116;18.296;2023-02-26T02:31:19;15.20;81.50
51811;DHT22;52468;40.116;18.296;2023-02-26T02:34:03;15.10;81.40
51811;DHT22;52468;40.116;18.296;2023-02-26T02:36:42;15.20;81.30
51811;DHT22;52468;40.116;18.296;2023-02-26T02:39:18;15.20;81.10
51811;DHT22;52468;40.116;18.296;2023-02-26T02:41:55;15.20;81.00
51811;DHT22;52468;40.116;18.296;2023-02-26T02:44:25;15.30;80.80
51811;DHT22;52468;40.116;18.296;2023-02-26T02:46:57;15.30;80.70
51811;DHT22;52468;40.116;18.296;2023-02-26T02:49:42;15.30;80.50
51811;DHT22;52468;40.116;18.296;2023-02-26T02:55:17;15.30;80.20
51811;DHT22;52468;40.116;18.296;2023-02-26T02:58:34;15.30;79.90
51811;DHT22;52468;40.116;18.296;2023-02-26T03:01:00;15.30;79.70
51811;DHT22;52468;40.116;18.296;2023-02-26T03:06:03;15.30;79.40
51811;DHT22;52468;40.116;18.296;2023-02-26T03:08:36;15.30;79.50
51811;DHT22;52468;40.116;18.296;2023-02-26T03:11:05;15.30;79.10
51811;DHT22;52468;40.116;18.296;2023-02-26T03:13:33;15.30;79.20
51811;DHT22;52468;40.116;18.296;2023-02-26T03:16:25;15.30;78.80
51811;DHT22;52468;40.116;18.296;2023-02-26T03:19:10;15.30;78.50
51811;DHT22;52468;40.116;18.296;2023-02-26T03:22:08;15.40;78.40
51811;DHT22;52468;40.116;18.296;2023-02-26T03:31:06;15.50;77.80
51811;DHT22;52468;40.116;18.296;2023-02-26T03:33:53;15.50;77.70
51811;DHT22;52468;40.116;18.296;2023-02-26T03:36:28;15.40;77.70
51811;DHT22;52468;40.116;18.296;2023-02-26T03:39:20;15.40;77.70
51811;DHT22;52468;40.116;18.296;2023-02-26T03:44:31;15.50;77.60
51811;DHT22;52468;40.116;18.296;2023-02-26T03:47:11;15.40;77.70
51811;DHT22;52468;40.116;18.296;2023-02-26T03:49:45;15.40;77.80
51811;DHT22;52468;40.116;18.296;2023-02-26T03:52:15;15.40;77.90
51811;DHT22;52468;40.116;18.296;2023-02-26T03:55:04;15.40;78.00
51811;DHT22;52468;40.116;18.296;2023-02-26T03:57:51;15.40;78.00
51811;DHT22;52468;40.116;18.296;2023-02-26T04:00:30;15.40;78.20
51811;DHT22;52468;40.116;18.296;2023-02-26T04:03:13;15.30;78.30
51811;DHT22;52468;40.116;18.296;2023-02-26T04:05:47;15.30;78.50
51811;DHT22;52468;40.116;18.296;2023-02-26T04:08:16;15.30;78.50
51811;DHT22;52468;40.116;18.296;2023-02-26T04:10:50;15.30;78.70
51811;DHT22;52468;40.116;18.296;2023-02-26T04:13:19;15.30;78.50
51811;DHT22;52468;40.116;18.296;2023-02-26T04:15:47;15.30;78.50
51811;DHT22;52468;40.116;18.296;2023-02-26T04:18:16;15.30;78.50
51811;DHT22;52468;40.116;18.296;2023-02-26T04:20:44;15.30;78.40
51811;DHT22;52468;40.116;18.296;2023-02-26T04:23:12;15.30;78.50
51811;DHT22;52468;40.116;18.296;2023-02-26T04:25:40;15.30;78.70
51811;DHT22;52468;40.116;18.296;2023-02-26T04:28:10;15.30;78.60
51811;DHT22;52468;40.116;18.296;2023-02-26T04:30:37;15.30;78.60
51811;DHT22;52468;40.116;18.296;2023-02-26T04:33:08;15.30;78.80
51811;DHT22;52468;40.116;18.296;2023-02-26T04:35:36;15.30;78.70
51811;DHT22;52468;40.116;18.296;2023-02-26T04:38:04;15.30;78.90
51811;DHT22;52468;40.116;18.296;2023-02-26T04:40:32;15.30;78.80
51811;DHT22;52468;40.116;18.296;2023-02-26T04:43:00;15.30;78.80
51811;DHT22;52468;40.116;18.296;2023-02-26T04:45:32;15.40;78.70
51811;DHT22;52468;40.116;18.296;2023-02-26T04:48:00;15.30;78.80
51811;DHT22;52468;40.116;18.296;2023-02-26T04:50:29;15.20;78.90
51811;DHT22;52468;40.116;18.296;2023-02-26T04:52:57;15.30;78.80
51811;DHT22;52468;40.116;18.296;2023-02-26T04:55:26;15.30;78.90
51811;DHT22;52468;40.116;18.296;2023-02-26T04:57:54;15.30;79.10
51811;DHT22;52468;40.116;18.296;2023-02-26T05:00:24;15.30;79.10
51811;DHT22;52468;40.116;18.296;2023-02-26T05:02:53;15.20;79.20
51811;DHT22;52468;40.116;18.296;2023-02-26T05:05:20;15.30;79.00
51811;DHT22;52468;40.116;18.296;2023-02-26T05:07:48;15.30;79.10
51811;DHT22;52468;40.116;18.296;2023-02-26T05:10:17;15.30;79.20
51811;DHT22;52468;40.116;18.296;2023-02-26T05:12:45;15.30;79.20
51811;DHT22;52468;40.116;18.296;2023-02-26T05:15:14;15.30;79.30
51811;DHT22;52468;40.116;18.296;2023-02-26T05:17:43;15.40;79.30
51811;DHT22;52468;40.116;18.296;2023-02-26T05:20:11;15.40;79.30
51811;DHT22;52468;40.116;18.296;2023-02-26T05:22:39;15.30;79.30
51811;DHT22;52468;40.116;18.296;2023-02-26T05:25:07;15.30;79.50
51811;DHT22;52468;40.116;18.296;2023-02-26T05:27:36;15.30;79.30
51811;DHT22;52468;40.116;18.296;2023-02-26T05:30:04;15.30;79.10
51811;DHT22;52468;40.116;18.296;2023-02-26T05:32:34;15.30;79.40
51811;DHT22;52468;40.116;18.296;2023-02-26T05:35:02;15.30;79.40
51811;DHT22;52468;40.116;18.296;2023-02-26T05:37:30;15.30;79.30
51811;DHT22;52468;40.116;18.296;2023-02-26T05:39:58;15.30;79.30
51811;DHT22;52468;40.116;18.296;2023-02-26T05:42:26;15.40;79.30
51811;DHT22;52468;40.116;18.296;2023-02-26T05:44:54;15.40;79.20
51811;DHT22;52468;40.116;18.296;2023-02-26T05:47:22;15.40;79.10
51811;DHT22;52468;40.116;18.296;2023-02-26T05:49:50;15.40;79.00
51811;DHT22;52468;40.116;18.296;2023-02-26T05:52:18;15.50;78.80
51811;DHT22;52468;40.116;18.296;2023-02-26T05:54:46;15.50;78.40
51811;DHT22;52468;40.116;18.296;2023-02-26T05:57:14;15.50;78.40
51811;DHT22;52468;40.116;18.296;2023-02-26T05:59:41;15.60;78.30
51811;DHT22;52468;40.116;18.296;2023-02-26T06:02:09;15.60;78.00
51811;DHT22;52468;40.116;18.296;2023-02-26T06:04:37;15.80;77.80
51811;DHT22;52468;40.116;18.296;2023-02-26T06:07:05;15.90;77.50
51811;DHT22;52468;40.116;18.296;2023-02-26T06:09:33;16.00;76.80
51811;DHT22;52468;40.116;18.296;2023-02-26T06:12:01;16.10;76.80
51811;DHT22;52468;40.116;18.296;2023-02-26T06:14:29;16.10;76.70
51811;DHT22;52468;40.116;18.296;2023-02-26T06:16:57;16.20;76.50
51811;DHT22;52468;40.116;18.296;2023-02-26T06:19:25;16.40;75.80
51811;DHT22;52468;40.116;18.296;2023-02-26T06:21:52;16.60;75.30
51811;DHT22;52468;40.116;18.296;2023-02-26T06:24:21;16.70;74.90
51811;DHT22;52468;40.116;18.296;2023-02-26T06:26:48;16.80;74.50
51811;DHT22;52468;40.116;18.296;2023-02-26T06:29:17;16.80;73.70
51811;DHT22;52468;40.116;18.296;2023-02-26T06:31:46;16.90;73.50
51811;DHT22;52468;40.116;18.296;2023-02-26T06:34:14;16.90;73.20
51811;DHT22;52468;40.116;18.296;2023-02-26T06:36:42;17.00;72.80
51811;DHT22;52468;40.116;18.296;2023-02-26T06:39:10;17.10;72.40
51811;DHT22;52468;40.116;18.296;2023-02-26T06:41:39;17.10;72.00
51811;DHT22;52468;40.116;18.296;2023-02-26T06:44:08;17.20;72.00
51811;DHT22;52468;40.116;18.296;2023-02-26T06:46:36;17.20;71.80
51811;DHT22;52468;40.116;18.296;2023-02-26T06:49:05;17.40;71.00
51811;DHT22;52468;40.116;18.296;2023-02-26T06:51:32;17.50;70.50
51811;DHT22;52468;40.116;18.296;2023-02-26T06:54:00;17.50;70.20
51811;DHT22;52468;40.116;18.296;2023-02-26T06:56:28;17.60;69.80
51811;DHT22;52468;40.116;18.296;2023-02-26T06:58:56;17.80;69.30
51811;DHT22;52468;40.116;18.296;2023-02-26T07:01:24;17.90;68.50
51811;DHT22;52468;40.116;18.296;2023-02-26T07:03:52;18.00;68.10
51811;DHT22;52468;40.116;18.296;2023-02-26T07:06:20;18.10;68.10
51811;DHT22;52468;40.116;18.296;2023-02-26T07:08:54;18.20;67.20
51811;DHT22;52468;40.116;18.296;2023-02-26T07:11:22;18.30;67.10
51811;DHT22;52468;40.116;18.296;2023-02-26T07:13:50;18.40;66.70
51811;DHT22;52468;40.116;18.296;2023-02-26T07:16:18;18.40;66.40
51811;DHT22;52468;40.116;18.296;2023-02-26T07:18:46;18.50;65.90
51811;DHT22;52468;40.116;18.296;2023-02-26T07:21:14;18.50;65.90
51811;DHT22;52468;40.116;18.296;2023-02-26T07:23:41;18.50;66.10
51811;DHT22;52468;40.116;18.296;2023-02-26T07:26:10;18.40;66.40
51811;DHT22;52468;40.116;18.296;2023-02-26T07:28:38;18.40;66.30
51811;DHT22;52468;40.116;18.296;2023-02-26T07:31:05;18.30;66.40
51811;DHT22;52468;40.116;18.296;2023-02-26T07:33:33;18.40;66.80
51811;DHT22;52468;40.116;18.296;2023-02-26T07:36:02;18.30;66.80
51811;DHT22;52468;40.116;18.296;2023-02-26T07:38:31;18.30;66.80
51811;DHT22;52468;40.116;18.296;2023-02-26T07:40:59;18.40;66.60
51811;DHT22;52468;40.116;18.296;2023-02-26T07:43:26;18.50;66.80
51811;DHT22;52468;40.116;18.296;2023-02-26T07:45:54;18.70;66.30
51811;DHT22;52468;40.116;18.296;2023-02-26T07:48:22;18.70;65.90
51811;DHT22;52468;40.116;18.296;2023-02-26T07:50:53;18.70;66.00
51811;DHT22;52468;40.116;18.296;2023-02-26T07:53:22;18.80;66.00
51811;DHT22;52468;40.116;18.296;2023-02-26T07:55:49;18.80;65.60
51811;DHT22;52468;40.116;18.296;2023-02-26T07:58:17;18.90;65.40
51811;DHT22;52468;40.116;18.296;2023-02-26T08:00:45;19.00;65.30
51811;DHT22;52468;40.116;18.296;2023-02-26T08:03:13;19.00;65.20
51811;DHT22;52468;40.116;18.296;2023-02-26T08:05:42;19.00;65.40
51811;DHT22;52468;40.116;18.296;2023-02-26T08:08:09;18.90;65.30
51811;DHT22;52468;40.116;18.296;2023-02-26T08:10:37;18.80;65.80
51811;DHT22;52468;40.116;18.296;2023-02-26T08:13:08;18.70;65.90
51811;DHT22;52468;40.116;18.296;2023-02-26T08:15:36;18.70;66.20
51811;DHT22;52468;40.116;18.296;2023-02-26T08:18:04;18.60;66.60
51811;DHT22;52468;40.116;18.296;2023-02-26T08:20:32;18.70;66.60
51811;DHT22;52468;40.116;18.296;2023-02-26T08:23:00;18.70;66.60
51811;DHT22;52468;40.116;18.296;2023-02-26T08:25:28;18.80;66.40
51811;DHT22;52468;40.116;18.296;2023-02-26T08:27:56;18.90;66.30
51811;DHT22;52468;40.116;18.296;2023-02-26T08:30:25;18.90;66.30
51811;DHT22;52468;40.116;18.296;2023-02-26T08:32:52;18.90;66.40
51811;DHT22;52468;40.116;18.296;2023-02-26T08:35:20;19.00;66.40
51811;DHT22;52468;40.116;18.296;2023-02-26T08:37:48;19.00;66.50
51811;DHT22;52468;40.116;18.296;2023-02-26T08:40:16;19.00;66.50
51811;DHT22;52468;40.116;18.296;2023-02-26T08:42:44;18.90;66.60
51811;DHT22;52468;40.116;18.296;2023-02-26T08:45:12;18.90;66.70
51811;DHT22;52468;40.116;18.296;2023-02-26T08:47:40;18.90;66.80
51811;DHT22;52468;40.116;18.296;2023-02-26T08:50:24;18.90;67.00
51811;DHT22;52468;40.116;18.296;2023-02-26T08:52:52;19.00;67.00
51811;DHT22;52468;40.116;18.296;2023-02-26T08:55:21;19.20;66.30
51811;DHT22;52468;40.116;18.296;2023-02-26T08:57:49;19.20;65.90
51811;DHT22;52468;40.116;18.296;2023-02-26T09:00:17;19.30;65.70
51811;DHT22;52468;40.116;18.296;2023-02-26T09:02:46;19.20;65.70
51811;DHT22;52468;40.116;18.296;2023-02-26T09:05:14;19.10;66.20
51811;DHT22;52468;40.116;18.296;2023-02-26T09:07:42;19.00;66.30
51811;DHT22;52468;40.116;18.296;2023-02-26T09:10:11;19.00;66.40
51811;DHT22;52468;40.116;18.296;2023-02-26T09:12:40;18.90;66.80
51811;DHT22;52468;40.116;18.296;2023-02-26T09:15:10;18.90;67.10
51811;DHT22;52468;40.116;18.296;2023-02-26T09:17:38;18.90;67.20
51811;DHT22;52468;40.116;18.296;2023-02-26T09:20:06;19.00;67.00
51811;DHT22;52468;40.116;18.296;2023-02-26T09:22:36;19.10;66.60
51811;DHT22;52468;40.116;18.296;2023-02-26T09:25:05;19.00;66.30
51811;DHT22;52468;40.116;18.296;2023-02-26T09:27:33;18.80;67.10
51811;DHT22;52468;40.116;18.296;2023-02-26T09:30:05;18.80;67.70
51811;DHT22;52468;40.116;18.296;2023-02-26T09:32:33;18.90;67.60
51811;DHT22;52468;40.116;18.296;2023-02-26T09:35:01;19.00;67.10
51811;DHT22;52468;40.116;18.296;2023-02-26T09:37:30;18.80;67.40
51811;DHT22;52468;40.116;18.296;2023-02-26T09:39:58;18.90;67.70
51811;DHT22;52468;40.116;18.296;2023-02-26T09:45:41;19.20;67.30
51811;DHT22;52468;40.116;18.296;2023-02-26T09:48:14;19.30;67.00
51811;DHT22;52468;40.116;18.296;2023-02-26T09:50:48;19.30;66.70
51811;DHT22;52468;40.116;18.296;2023-02-26T09:53:31;19.40;66.50
51811;DHT22;52468;40.116;18.296;2023-02-26T09:56:14;19.30;66.20
51811;DHT22;52468;40.116;18.296;2023-02-26T09:58:43;19.10;66.90
51811;DHT22;52468;40.116;18.296;2023-02-26T10:04:12;18.90;67.70
51811;DHT22;52468;40.116;18.296;2023-02-26T10:12:19;18.90;68.60
51811;DHT22;52468;40.116;18.296;2023-02-26T10:15:10;19.10;68.80
51811;DHT22;52468;40.116;18.296;2023-02-26T10:20:26;19.60;68.00
51811;DHT22;52468;40.116;18.296;2023-02-26T10:25:47;20.00;66.30
51811;DHT22;52468;40.116;18.296;2023-02-26T10:28:38;20.10;66.00
51811;DHT22;52468;40.116;18.296;2023-02-26T10:34:09;20.30;65.60
51811;DHT22;52468;40.116;18.296;2023-02-26T10:36:51;20.50;65.10
51811;DHT22;52468;40.116;18.296;2023-02-26T10:42:08;21.10;64.70
51811;DHT22;52468;40.116;18.296;2023-02-26T10:44:50;21.60;63.00
51811;DHT22;52468;40.116;18.296;2023-02-26T10:47:43;21.70;61.70
51811;DHT22;52468;40.116;18.296;2023-02-26T10:50:17;21.70;61.50
51811;DHT22;52468;40.116;18.296;2023-02-26T10:52:48;21.70;61.70
51811;DHT22;52468;40.116;18.296;2023-02-26T10:55:33;21.70;61.30
51811;DHT22;52468;40.116;18.296;2023-02-26T10:58:12;21.50;62.00
51811;DHT22;52468;40.116;18.296;2023-02-26T11:00:46;21.50;62.10
51811;DHT22;52468;40.116;18.296;2023-02-26T11:05:46;21.50;62.50
51811;DHT22;52468;40.116;18.296;2023-02-26T11:08:24;21.70;62.30
51811;DHT22;52468;40.116;18.296;2023-02-26T11:11:00;22.20;61.90
51811;DHT22;52468;40.116;18.296;2023-02-26T11:13:33;22.80;60.00
51811;DHT22;52468;40.116;18.296;2023-02-26T11:16:04;23.00;58.60
51811;DHT22;52468;40.116;18.296;2023-02-26T11:21:40;22.30;59.20
51811;DHT22;52468;40.116;18.296;2023-02-26T11:24:20;22.10;60.40
51811;DHT22;52468;40.116;18.296;2023-02-26T11:26:54;22.20;60.10
51811;DHT22;52468;40.116;18.296;2023-02-26T11:29:24;22.40;60.60
51811;DHT22;52468;40.116;18.296;2023-02-26T11:31:54;22.70;60.20
51811;DHT22;52468;40.116;18.296;2023-02-26T11:34:24;23.00;58.70
51811;DHT22;52468;40.116;18.296;2023-02-26T11:36:58;23.00;58.10
51811;DHT22;52468;40.116;18.296;2023-02-26T11:39:31;22.80;58.40
51811;DHT22;52468;40.116;18.296;2023-02-26T11:42:00;22.60;58.90
51811;DHT22;52468;40.116;18.296;2023-02-26T11:44:39;22.60;59.30
51811;DHT22;52468;40.116;18.296;2023-02-26T11:47:20;22.50;59.60
51811;DHT22;52468;40.116;18.296;2023-02-26T11:49:59;22.10;59.80
51811;DHT22;52468;40.116;18.296;2023-02-26T11:52:53;21.70;60.90
51811;DHT22;52468;40.116;18.296;2023-02-26T11:55:43;21.40;62.20
51811;DHT22;52468;40.116;18.296;2023-02-26T11:58:20;21.40;62.80
51811;DHT22;52468;40.116;18.296;2023-02-26T12:00:51;21.50;62.90
51811;DHT22;52468;40.116;18.296;2023-02-26T12:03:21;21.70;62.20
51811;DHT22;52468;40.116;18.296;2023-02-26T12:05:50;21.80;62.30
51811;DHT22;52468;40.116;18.296;2023-02-26T12:11:06;22.10;61.00
51811;DHT22;52468;40.116;18.296;2023-02-26T12:34:13;21.30;63.30
51811;DHT22;52468;40.116;18.296;2023-02-26T12:45:04;21.00;64.20
51811;DHT22;52468;40.116;18.296;2023-02-26T12:59:11;20.30;65.90
51811;DHT22;52468;40.116;18.296;2023-02-26T13:01:54;20.20;66.50
51811;DHT22;52468;40.116;18.296;2023-02-26T13:04:33;20.00;66.80
51811;DHT22;52468;40.116;18.296;2023-02-26T13:20:39;19.60;68.80
51811;DHT22;52468;40.116;18.296;2023-02-26T13:23:16;19.60;68.80
51811;DHT22;52468;40.116;18.296;2023-02-26T13:25:51;19.50;68.90
51811;DHT22;52468;40.116;18.296;2023-02-26T13:28:36;19.50;69.00
51811;DHT22;52468;40.116;18.296;2023-02-26T13:31:22;19.50;69.10
51811;DHT22;52468;40.116;18.296;2023-02-26T13:33:55;19.50;69.40
51811;DHT22;52468;40.116;18.296;2023-02-26T13:36:26;19.50;69.50
51811;DHT22;52468;40.116;18.296;2023-02-26T13:45:00;19.70;70.20
51811;DHT22;52468;40.116;18.296;2023-02-26T13:59:25;22.00;62.90
51811;DHT22;52468;40.116;18.296;2023-02-26T14:02:01;22.30;60.80
51811;DHT22;52468;40.116;18.296;2023-02-26T14:04:32;22.10;59.80
51811;DHT22;52468;40.116;18.296;2023-02-26T14:07:16;21.60;60.30
51811;DHT22;52468;40.116;18.296;2023-02-26T14:09:59;21.10;61.20
51811;DHT22;52468;40.116;18.296;2023-02-26T14:12:35;20.80;62.50
51811;DHT22;52468;40.116;18.296;2023-02-26T14:17:47;20.80;63.40
51811;DHT22;52468;40.116;18.296;2023-02-26T14:25:31;21.60;60.40
51811;DHT22;52468;40.116;18.296;2023-02-26T14:34:06;21.80;58.50
51811;DHT22;52468;40.116;18.296;2023-02-26T14:36:52;21.80;57.60
51811;DHT22;52468;40.116;18.296;2023-02-26T14:39:35;21.60;57.90
51811;DHT22;52468;40.116;18.296;2023-02-26T14:42:22;21.50;57.90
51811;DHT22;52468;40.116;18.296;2023-02-26T14:45:07;21.30;57.90
51811;DHT22;52468;40.116;18.296;2023-02-26T14:47:36;20.90;58.40
51811;DHT22;52468;40.116;18.296;2023-02-26T14:50:05;20.40;59.60
51811;DHT22;52468;40.116;18.296;2023-02-26T15:10:06;19.00;66.30
51811;DHT22;52468;40.116;18.296;2023-02-26T15:15:27;18.80;67.10
51811;DHT22;52468;40.116;18.296;2023-02-26T15:26:02;18.50;67.90
51811;DHT22;52468;40.116;18.296;2023-02-26T15:28:35;18.50;68.20
51811;DHT22;52468;40.116;18.296;2023-02-26T15:31:06;18.30;68.10
51811;DHT22;52468;40.116;18.296;2023-02-26T15:33:35;17.80;66.60
51811;DHT22;52468;40.116;18.296;2023-02-26T15:36:07;17.00;67.90
51811;DHT22;52468;40.116;18.296;2023-02-26T15:38:54;16.30;70.00
51811;DHT22;52468;40.116;18.296;2023-02-26T15:41:25;15.60;72.90
51811;DHT22;52468;40.116;18.296;2023-02-26T15:44:04;15.30;75.80
51811;DHT22;52468;40.116;18.296;2023-02-26T15:46:47;15.30;77.00
51811;DHT22;52468;40.116;18.296;2023-02-26T15:49:19;15.30;77.30
51811;DHT22;52468;40.116;18.296;2023-02-26T15:51:51;15.10;77.50
51811;DHT22;52468;40.116;18.296;2023-02-26T15:54:22;15.00;77.60
51811;DHT22;52468;40.116;18.296;2023-02-26T15:56:50;15.00;77.30
51811;DHT22;52468;40.116;18.296;2023-02-26T15:59:22;14.80;78.70
51811;DHT22;52468;40.116;18.296;2023-02-26T16:01:53;14.80;79.00
51811;DHT22;52468;40.116;18.296;2023-02-26T16:04:22;14.80;78.60
51811;DHT22;52468;40.116;18.296;2023-02-26T16:06:55;14.90;78.40
51811;DHT22;52468;40.116;18.296;2023-02-26T16:12:09;14.90;78.50
51811;DHT22;52468;40.116;18.296;2023-02-26T16:14:40;14.80;78.70
51811;DHT22;52468;40.116;18.296;2023-02-26T16:17:13;14.80;78.60
51811;DHT22;52468;40.116;18.296;2023-02-26T16:19:45;14.80;79.10
51811;DHT22;52468;40.116;18.296;2023-02-26T16:22:30;14.60;79.80
51811;DHT22;52468;40.116;18.296;2023-02-26T16:25:03;14.60;79.90
51811;DHT22;52468;40.116;18.296;2023-02-26T16:27:33;14.70;79.70
51811;DHT22;52468;40.116;18.296;2023-02-26T16:30:04;14.80;79.40
51811;DHT22;52468;40.116;18.296;2023-02-26T16:32:34;14.60;80.50
51811;DHT22;52468;40.116;18.296;2023-02-26T16:35:18;14.50;80.10
51811;DHT22;52468;40.116;18.296;2023-02-26T16:37:53;14.50;80.10
51811;DHT22;52468;40.116;18.296;2023-02-26T16:40:34;14.50;80.50
51811;DHT22;52468;40.116;18.296;2023-02-26T16:43:05;14.50;79.80
51811;DHT22;52468;40.116;18.296;2023-02-26T16:45:49;14.40;80.50
51811;DHT22;52468;40.116;18.296;2023-02-26T16:51:12;14.50;80.20
51811;DHT22;52468;40.116;18.296;2023-02-26T16:53:51;14.50;79.80
51811;DHT22;52468;40.116;18.296;2023-02-26T16:56:27;14.40;80.40
51811;DHT22;52468;40.116;18.296;2023-02-26T17:01:35;14.50;80.50
51811;DHT22;52468;40.116;18.296;2023-02-26T17:04:05;14.50;79.80
51811;DHT22;52468;40.116;18.296;2023-02-26T17:06:37;14.50;79.10
51811;DHT22;52468;40.116;18.296;2023-02-26T17:09:07;14.40;79.40
51811;DHT22;52468;40.116;18.296;2023-02-26T17:11:49;14.30;79.80
51811;DHT22;52468;40.116;18.296;2023-02-26T17:14:23;14.10;79.60
51811;DHT22;52468;40.116;18.296;2023-02-26T17:16:52;13.90;79.30
51811;DHT22;52468;40.116;18.296;2023-02-26T17:19:20;13.60;79.90
51811;DHT22;52468;40.116;18.296;2023-02-26T17:21:55;13.50;79.80
51811;DHT22;52468;40.116;18.296;2023-02-26T17:24:33;13.50;79.80
51811;DHT22;52468;40.116;18.296;2023-02-26T17:27:03;13.50;79.90
51811;DHT22;52468;40.116;18.296;2023-02-26T17:29:34;13.50;79.40
51811;DHT22;52468;40.116;18.296;2023-02-26T17:32:11;13.50;78.50
51811;DHT22;52468;40.116;18.296;2023-02-26T17:34:41;13.50;78.30
51811;DHT22;52468;40.116;18.296;2023-02-26T17:37:11;13.40;78.00
51811;DHT22;52468;40.116;18.296;2023-02-26T17:39:40;13.50;78.40
51811;DHT22;52468;40.116;18.296;2023-02-26T17:42:18;13.50;77.80
51811;DHT22;52468;40.116;18.296;2023-02-26T17:44:48;13.40;77.60
51811;DHT22;52468;40.116;18.296;2023-02-26T17:47:19;13.50;78.00
51811;DHT22;52468;40.116;18.296;2023-02-26T17:49:48;13.30;77.60
51811;DHT22;52468;40.116;18.296;2023-02-26T17:52:16;13.30;77.50
51811;DHT22;52468;40.116;18.296;2023-02-26T17:54:44;13.20;78.60
51811;DHT22;52468;40.116;18.296;2023-02-26T17:57:20;13.30;77.70
51811;DHT22;52468;40.116;18.296;2023-02-26T17:59:48;13.30;77.50
51811;DHT22;52468;40.116;18.296;2023-02-26T18:02:21;13.30;77.20
51811;DHT22;52468;40.116;18.296;2023-02-26T18:04:50;13.30;77.10
51811;DHT22;52468;40.116;18.296;2023-02-26T18:07:18;13.20;77.60
51811;DHT22;52468;40.116;18.296;2023-02-26T18:09:47;13.30;77.50
51811;DHT22;52468;40.116;18.296;2023-02-26T18:12:17;13.30;77.80
51811;DHT22;52468;40.116;18.296;2023-02-26T18:14:45;13.50;77.10
51811;DHT22;52468;40.116;18.296;2023-02-26T18:17:17;13.50;76.90
51811;DHT22;52468;40.116;18.296;2023-02-26T18:19:45;13.50;77.30
51811;DHT22;52468;40.116;18.296;2023-02-26T18:22:17;13.40;77.60
51811;DHT22;52468;40.116;18.296;2023-02-26T18:24:46;13.20;78.50
51811;DHT22;52468;40.116;18.296;2023-02-26T18:27:16;13.20;78.50
51811;DHT22;52468;40.116;18.296;2023-02-26T18:29:46;13.20;79.30
51811;DHT22;52468;40.116;18.296;2023-02-26T18:32:19;13.10;78.70
51811;DHT22;52468;40.116;18.296;2023-02-26T18:34:48;13.20;79.80
51811;DHT22;52468;40.116;18.296;2023-02-26T18:37:19;13.20;79.30
51811;DHT22;52468;40.116;18.296;2023-02-26T18:39:48;13.30;79.20
51811;DHT22;52468;40.116;18.296;2023-02-26T18:42:20;13.30;79.10
51811;DHT22;52468;40.116;18.296;2023-02-26T18:44:48;13.40;78.90
51811;DHT22;52468;40.116;18.296;2023-02-26T18:47:17;13.20;79.40
51811;DHT22;52468;40.116;18.296;2023-02-26T18:49:47;13.10;79.50
51811;DHT22;52468;40.116;18.296;2023-02-26T18:52:15;13.10;79.90
51811;DHT22;52468;40.116;18.296;2023-02-26T18:54:44;13.00;79.80
51811;DHT22;52468;40.116;18.296;2023-02-26T18:57:12;13.00;79.70